Ballantine, MT (59006)

2:58 PM MST on December 17, 2014 (GMT -0700)
Lockwood | Change Station
CLOSE
Current Station
Personal Weather Station
Location: Billings, MT
Elevation: 3202 ft
Nearby Weather Stations

Elev 3202 ft 45.82 °N, 108.39 °W | Updated 22 seconds ago

Overcast
Overcast
32.9 °F
Feels Like 33 °F
N
0.0
Wind Variable Wind from SSW
Gusts 0.0 mph

Today
High -- | Low -- °F
--% Chance of Precip.
Yesterday
High -- | Low -- °F
Precip. -- in
7:48 AM 4:28 PM
Waning Crescent, 19% visible
Pressure 30.02 in
Visibility 10.0 miles
Clouds Mostly Cloudy 6000 ft
Overcast 11000 ft
Windchill 33 °F
Dew Point 26 °F
Humidity 76%
Rainfall 0.00 in
Snow Depth Not available.
UV 0 out of 12
Pollen .10 out of 12
Air Quality Not available.
Flu Activity Not available.
METAR KBIL 172053Z 21013KT 10SM BKN060 OVC110 00/M04 A2990 RMK AO2 SLP164 SHSN DSNT NW-NE 60000 T00001039 56015

More Conditions Fewer Conditions

Pressure 30.02 in
Visibility 10.0 miles
Clouds Mostly Cloudy 6000 ft
Overcast 11000 ft
Windchill 33 °F
Dew Point 26 °F
Humidity 76%
Rainfall 0.00 in
Snow Depth Not available.
UV 0 out of 12
Pollen .10 out of 12
Air Quality Not available.
Flu Activity Not available.
METAR KBIL 172053Z 21013KT 10SM BKN060 OVC110 00/M04 A2990 RMK AO2 SLP164 SHSN DSNT NW-NE 60000 T00001039 56015

More Conditions Fewer Conditions

10-Day Weather Forecast

Almanac

Astronomy

Dec. 17, 2014 Rise Set
Actual Time
Civil Twilight
Nautical Twilight
Astronomical Twilight
Moon
Length of Visible Light
Length of Day
Tomorrow will be .
, % of the Moon is Illuminated

Today's Extremes

State Highs State Lows

Community

WunderPhotos

Upload Photos

1,778,807 photos uploaded!

WunderBlogs® & News

Nearby

Air Quality

  Air Quality AQ Index Pollutant
Not available.

Snow Depth

Station Depth Elevation

Earthquake Activity

City Distance Mag. Time & Date
Minimum magnitude displayed is 2.5.

Coastal Water Temperatures

Place Temperature

Nearby Weather Stations